Flight Track Log - Related Links

Times and Time Zones

All times are in EDT time to prevent confusion due to time zone crossing. See the N531EG flight status page for this flight to view local times or setup timezone preferences in your user account.

Time Position Orientation Groundspeed Altitude Reporting Facility
EDT Latitude Longitude Course Direction KTS MPH feet Rate Location/Type
Wed 09:30:32 PM 40.7338 -74.2177 153° Southeast  Level FlightAware Approximate
Wed 09:30:41 PM 40.6833 -74.1833 312° West 144 166 1,200  Level New York TRACON
Wed 09:35:33 PM 40.8567 -74.4419 327° Northwest 374 430 11,500 2,051 Climbing New York Center
Wed 09:36:35 PM 40.9336 -74.5092 325° Northwest 379 436 13,300 2,118 Climbing New York Center
Wed 09:37:32 PM 41.0308 -74.6000 325° Northwest 384 442 15,700 1,831 Climbing New York Center
Wed 09:38:33 PM 41.1136 -74.6761 305° West 392 451 16,900 1,512 Climbing New York Center
Wed 09:39:35 PM 41.1706 -74.7842 301° West 392 451 18,800 1,869 Climbing New York Center
Wed 09:40:35 PM 41.2322 -74.9231 301° West 398 458 20,700 1,650 Climbing New York Center
Wed 09:41:35 PM 41.2922 -75.0564 300° West 414 476 22,100 1,322 Climbing New York Center
Wed 09:42:33 PM 41.3517 -75.1931 300° West 420 483 23,300 1,210 Climbing New York Center
Wed 09:43:34 PM 41.4128 -75.3353 298° West 434 499 24,500 1,190 Climbing New York Center
Wed 09:44:34 PM 41.4717 -75.4806 292° West 445 512 25,700 1,190 Climbing New York Center
Wed 09:45:35 PM 41.5233 -75.6503 291° West 445 512 26,900 1,261 Climbing New York Center
Wed 09:46:33 PM 41.5633 -75.7892 291° West 450 518 28,200 1,361 Climbing New York Center
Wed 09:47:34 PM 41.6067 -75.9422 292° West 450 518 29,600 1,180 Climbing New York Center
Wed 09:48:35 PM 41.6519 -76.0956 290° West 444 511 30,600 994 Climbing New York Center
Wed 09:50:17 PM 41.7311 -76.3867 290° West 454 522 32,300 926 Climbing Cleveland Center
Wed 09:51:17 PM 41.7742 -76.5428 292° West 459 528 33,100 850 Climbing Cleveland Center
Wed 09:52:17 PM 41.8214 -76.7014 289° West 459 528 34,000 850 Climbing Cleveland Center
Wed 09:53:17 PM 41.8619 -76.8581 290° West 459 528 34,800 750 Climbing Cleveland Center
Wed 09:54:17 PM 41.9047 -77.0172 291° West 459 528 35,500 600 Climbing Cleveland Center
Wed 09:55:17 PM 41.9492 -77.1769 290° West 459 528 36,000 250 Climbing Cleveland Center
Wed 09:56:17 PM 41.9933 -77.3394 289° West 459 528 36,000  Level Cleveland Center
Wed 09:57:17 PM 42.0356 -77.5022 290° West 459 528 36,000  Level Cleveland Center
Wed 09:58:17 PM 42.0794 -77.6653 290° West 464 534 36,000  Level Cleveland Center
Wed 09:59:17 PM 42.1231 -77.8311 290° West 464 534 36,000  Level Cleveland Center
Wed 10:00:17 PM 42.1619 -77.9781 289° West 464 534 36,000  Level Cleveland Center
Wed 10:01:17 PM 42.2053 -78.1472 289° West 464 534 36,000  Level Cleveland Center
Wed 10:02:17 PM 42.2483 -78.3139 291° West 464 534 36,000  Level Cleveland Center
Wed 10:03:17 PM 42.2931 -78.4750 288° West 464 534 36,000  Level Cleveland Center
Wed 10:04:17 PM 42.3333 -78.6422 289° West 464 534 36,000  Level Cleveland Center
Wed 10:05:17 PM 42.3756 -78.8069 288° West 464 534 36,000  Level Cleveland Center
Wed 10:06:17 PM 42.4200 -78.9883 290° West 464 534 36,000  Level Cleveland Center
Wed 10:07:17 PM 42.4594 -79.1394 284° West 464 534 36,000  Level Cleveland Center
Wed 10:08:17 PM 42.4906 -79.3047 275° West 464 534 36,000  Level Cleveland Center
Wed 10:09:17 PM 42.5028 -79.4819 275° West 464 534 36,000  Level Cleveland Center
Wed 10:10:17 PM 42.5128 -79.6536 273° West 464 534 36,000  Level Cleveland Center
Wed 10:11:17 PM 42.5203 -79.8253 272° West 464 534 36,000  Level Cleveland Center
Wed 10:12:17 PM 42.5256 -80.0142 273° West 459 528 36,000  Level Cleveland Center
Wed 10:13:17 PM 42.5325 -80.1886 274° West 459 528 36,000  Level Cleveland Center
Wed 10:14:17 PM 42.5414 -80.3633 273° West 459 528 36,000  Level Cleveland Center
Wed 10:15:17 PM 42.5478 -80.5381 273° West 459 528 36,000  Level Cleveland Center
Wed 10:16:17 PM 42.5539 -80.7128 273° West 466 536 36,000  Level Cleveland Center
Wed 10:17:17 PM 42.5597 -80.8875 279° West 466 536 36,000  Level Cleveland Center
Wed 10:18:17 PM 42.5800 -81.0597 282° West 466 536 36,000  Level Cleveland Center
Wed 10:19:17 PM 42.6064 -81.2319 282° West 458 527 36,000  Level Cleveland Center
Wed 10:20:17 PM 42.6325 -81.3989 281° West 458 527 36,000  Level Cleveland Center
Wed 10:21:17 PM 42.6581 -81.5714 282° West 463 533 36,000  Level Cleveland Center
Wed 10:22:17 PM 42.6817 -81.7214 281° West 463 533 36,000  Level Cleveland Center
Wed 10:23:17 PM 42.7050 -81.8886 281° West 463 533 36,000  Level Cleveland Center
Wed 10:24:17 PM 42.7300 -82.0614 281° West 469 540 36,000  Level Cleveland Center
Wed 10:25:17 PM 42.7567 -82.2458 281° West 469 540 36,000  Level Cleveland Center
Wed 10:26:17 PM 42.7811 -82.4192 279° West 468 539 36,000  Level Cleveland Center
Wed 10:27:17 PM 42.8011 -82.5894 274° West 468 539 36,000  Level Cleveland Center
Wed 10:28:17 PM 42.8106 -82.7625 273° West 468 539 36,000  Level Cleveland Center
Wed 10:29:17 PM 42.8175 -82.9411 273° West 463 533 36,000  Level Cleveland Center
Wed 10:30:17 PM 42.8242 -83.1111 274° West 463 533 36,000  Level Cleveland Center
Wed 10:31:17 PM 42.8328 -83.2869 274° West 468 539 36,000  Level Cleveland Center
Wed 10:32:17 PM 42.8411 -83.4631 273° West 468 539 36,000  Level Cleveland Center
Wed 10:33:17 PM 42.8472 -83.6331 273° West 463 533 36,000  Level Cleveland Center
Wed 10:34:17 PM 42.8547 -83.8092 273° West 463 533 36,000 -50 Level Cleveland Center
Wed 10:35:17 PM 42.8622 -83.9853 272° West 463 533 35,900  Descending Cleveland Center
Wed 10:36:17 PM 42.8675 -84.1556 273° West 463 533 36,000 50 Climbing Cleveland Center
Wed 10:37:17 PM 42.8728 -84.3175 270° West 463 533 36,000  Level Cleveland Center
Wed 10:39:34 PM 42.8719 -84.7117 262° West 465 535 36,000  Level Chicago Center
Wed 10:40:34 PM 42.8539 -84.8831 262° West 460 529 36,000  Level Chicago Center
Wed 10:41:34 PM 42.8353 -85.0542 262° West 460 529 36,000  Level Chicago Center
Wed 10:42:34 PM 42.8164 -85.2256 261° West 460 529 36,000 -150 Level Chicago Center
Wed 10:43:34 PM 42.7975 -85.3936 260° West 470 541 35,700 -1,800 Descending Chicago Center
Wed 10:44:34 PM 42.7722 -85.5792 256° West 470 541 32,400 -3,200 Descending Chicago Center
Wed 10:45:34 PM 42.7403 -85.7481 257° West 464 534 29,300 -3,100 Descending Chicago Center
Wed 10:46:34 PM 42.7117 -85.9108 256° West 457 526 26,200 -3,050 Descending Chicago Center
Wed 10:47:34 PM 42.6831 -86.0678 256° West 447 514 23,200 -2,550 Descending Chicago Center
Wed 10:48:34 PM 42.6578 -86.2075 256° West 433 498 21,100 -1,600 Descending Chicago Center
Wed 10:49:34 PM 42.6303 -86.3528 256° West 420 483 20,000 -550 Descending Chicago Center
Wed 10:50:34 PM 42.6047 -86.4922 256° West 399 459 20,000 -350 Level Chicago Center
Wed 10:51:34 PM 42.5808 -86.6231 256° West 379 436 19,300 -950 Descending Chicago Center
Wed 10:52:34 PM 42.5567 -86.7567 249° West 373 429 18,100 -1,700 Descending Chicago Center
Wed 10:53:34 PM 42.5161 -86.8964 249° West 373 429 15,900 -2,050 Descending Chicago Center
Wed 10:54:34 PM 42.4811 -87.0186 250° West 368 423 14,000 -1,850 Descending Chicago Center
Wed 10:55:34 PM 42.4481 -87.1411 249° West 357 411 12,200 -1,700 Descending Chicago Center
Wed 10:56:34 PM 42.4147 -87.2575 250° West 345 397 10,600 -1,150 Descending Chicago Center
Wed 10:57:34 PM 42.3794 -87.3878 250° West 356 410 9,900 -250 Descending Chicago Center
Wed 10:58:34 PM 42.3422 -87.5239 221° Southwest 372 428 10,100 100 Climbing Chicago Center
Wed 10:59:34 PM 42.2644 -87.6158 217° Southwest 366 421 10,100 -50 Level Chicago Center
Wed 11:00:34 PM 42.1822 -87.6994 225° Southwest 377 434 10,000 -500 Descending Chicago Center
Wed 11:01:34 PM 42.1208 -87.7822 241° Southwest 352 405 9,100 -1,326 Descending Chicago Center
Wed 11:02:09 PM 42.1000 -87.8333 246° West 286 329 7,900 -1,248 Descending Chicago TRACON
Wed 11:03:15 PM 42.0667 -87.9333 270° West 260 299 7,000 -591 Descending Chicago TRACON
Wed 11:04:21 PM 42.0667 -88.0167 270° West 188 216 6,600 -765 Descending Chicago TRACON
Wed 11:04:57 PM 42.0667 -88.0667 228° Southwest 190 219 5,700 -1,321 Descending Chicago TRACON
Wed 11:06:10 PM 42.0333 -88.1167 154° Southeast 206 237 4,200 -1,165 Descending Chicago TRACON
Wed 11:07:16 PM 41.9833 -88.0833 109° East 200 230 3,000 -1,000 Descending Chicago TRACON
Wed 11:08:16 PM 41.9667 -88.0167 109° East 178 205 2,100 -900 Descending Chicago TRACON

Login

Don't have an account? Register now (free) for customized features, flight alerts, and more!